Time;durP1;ratioP1;P1;durP2;ratioP2;P2;SDS_P1;SDS_P2;PMS_P1;PMS_P2;Temp;Humidity;BMP_temperature;BMP_pressure;BME280_temperature;BME280_humidity;BME280_pressure;Samples;Min_cycle;Max_cycle;Signal;HPM_P1;HPM_P2
2021/04/10 00:02:05;;;;;;;11.43;6.13;;;;;;;;;;4991133;28;20030;-69
2021/04/10 00:04:31;;;;;;;14.68;6.63;;;;;;;;;;4990938;28;20026;-69
2021/04/10 00:06:57;;;;;;;11.48;6.63;;;;;;;;;;4991365;28;20037;-70
2021/04/10 00:09:23;;;;;;;12.60;7.20;;;;;;;;;;4991360;28;20034;-69
2021/04/10 00:11:49;;;;;;;10.43;5.97;;;;;;;;;;4991228;28;20069;-69
2021/04/10 00:14:16;;;;;;;9.90;5.90;;;;;;;;;;4990908;28;20030;-69
2021/04/10 00:16:42;;;;;;;11.73;6.03;;;;;;;;;;4990928;28;20107;-69
2021/04/10 00:19:08;;;;;;;14.80;6.47;;;;;;;;;;4991267;28;20491;-69
2021/04/10 00:21:34;;;;;;;11.55;5.93;;;;;;;;;;4991124;28;20860;-69
2021/04/10 00:24:00;;;;;;;11.05;6.10;;;;;;;;;;4991216;28;20040;-69
2021/04/10 00:26:26;;;;;;;10.80;6.35;;;;;;;;;;4991231;28;20084;-68
2021/04/10 00:28:52;;;;;;;13.43;6.13;;;;;;;;;;4990854;28;20046;-68
2021/04/10 00:31:18;;;;;;;11.38;5.53;;;;;;;;;;4991173;28;20039;-69
2021/04/10 00:33:44;;;;;;;12.75;6.20;;;;;;;;;;4991109;28;20027;-68
2021/04/10 00:36:10;;;;;;;11.35;5.70;;;;;;;;;;4991273;28;20026;-68
2021/04/10 00:38:38;;;;;;;10.98;5.47;;;;;;;;;;4991091;28;20026;-69
2021/04/10 00:41:05;;;;;;;12.07;5.13;;;;;;;;;;4991480;28;20104;-68
2021/04/10 00:43:31;;;;;;;11.45;5.88;;;;;;;;;;4991047;28;20482;-68
2021/04/10 00:45:57;;;;;;;10.85;5.80;;;;;;;;;;4990793;28;20083;-69
2021/04/10 00:48:23;;;;;;;15.25;7.60;;;;;;;;;;4990879;28;20026;-71
2021/04/10 00:50:50;;;;;;;13.07;6.32;;;;;;;;;;4990810;28;20041;-69
2021/04/10 00:53:17;;;;;;;11.93;6.30;;;;;;;;;;4990784;28;20058;-69
2021/04/10 00:55:47;;;;;;;15.00;5.65;;;;;;;;;;4991116;28;20026;-69
2021/04/10 00:58:13;;;;;;;10.10;5.53;;;;;;;;;;4991165;28;20035;-69
2021/04/10 01:00:40;;;;;;;10.68;5.68;;;;;;;;;;4991429;28;20031;-69
2021/04/10 01:03:06;;;;;;;10.80;5.70;;;;;;;;;;4994323;28;20500;-69
2021/04/10 01:05:32;;;;;;;10.68;5.70;;;;;;;;;;4994347;28;20490;-69
2021/04/10 01:07:58;;;;;;;13.10;6.18;;;;;;;;;;4994366;28;20022;-69
2021/04/10 01:10:25;;;;;;;10.07;5.55;;;;;;;;;;4994248;28;20386;-69
2021/04/10 01:12:57;;;;;;;11.15;5.07;;;;;;;;;;4996297;28;20073;-69
2021/04/10 01:15:26;;;;;;;11.70;5.57;;;;;;;;;;4995618;28;20022;-69
2021/04/10 01:17:59;;;;;;;13.98;6.10;;;;;;;;;;4994135;28;20030;-69
2021/04/10 01:20:37;;;;;;;13.48;5.32;;;;;;;;;;4993938;28;20034;-69
2021/04/10 01:23:22;;;;;;;9.82;5.32;;;;;;;;;;4993824;28;20040;-69
2021/04/10 01:25:54;;;;;;;10.70;5.00;;;;;;;;;;4993944;28;20036;-69
2021/04/10 01:28:35;;;;;;;9.75;5.00;;;;;;;;;;4993781;28;20073;-69
2021/04/10 01:31:02;;;;;;;12.75;5.35;;;;;;;;;;4976079;28;20038;-69
2021/04/10 01:33:30;;;;;;;10.05;5.35;;;;;;;;;;4994155;28;20018;-69
2021/04/10 01:35:58;;;;;;;12.77;5.75;;;;;;;;;;4993785;28;20474;-69
2021/04/10 01:38:28;;;;;;;12.88;5.65;;;;;;;;;;4993644;28;20065;-69
2021/04/10 01:40:56;;;;;;;10.73;5.13;;;;;;;;;;4993737;28;20444;-69
2021/04/10 01:43:22;;;;;;;8.48;4.50;;;;;;;;;;4993545;28;20073;-69
2021/04/10 01:45:49;;;;;;;11.25;5.72;;;;;;;;;;4993633;28;20452;-69
2021/04/10 01:48:15;;;;;;;9.80;5.03;;;;;;;;;;4993697;28;20351;-69
2021/04/10 01:50:42;;;;;;;10.35;5.43;;;;;;;;;;4993381;28;20038;-69
2021/04/10 01:53:09;;;;;;;8.55;4.70;;;;;;;;;;4992783;28;20049;-69
2021/04/10 01:55:35;;;;;;;10.68;4.90;;;;;;;;;;4993698;28;20058;-70
2021/04/10 01:58:02;;;;;;;11.13;5.70;;;;;;;;;;4993245;28;20030;-68
2021/04/10 02:00:29;;;;;;;10.18;5.53;;;;;;;;;;4992364;28;20026;-69
2021/04/10 02:02:56;;;;;;;11.05;4.90;;;;;;;;;;4992096;28;20053;-70
2021/04/10 02:05:22;;;;;;;10.70;4.78;;;;;;;;;;4993055;28;20065;-68
2021/04/10 02:07:49;;;;;;;10.05;5.15;;;;;;;;;;4993088;28;20084;-69
2021/04/10 02:10:17;;;;;;;11.18;5.05;;;;;;;;;;4993240;28;20537;-69
2021/04/10 02:12:44;;;;;;;11.52;6.25;;;;;;;;;;4992654;28;20042;-70
2021/04/10 02:15:11;;;;;;;11.07;5.28;;;;;;;;;;4993106;28;20101;-71
2021/04/10 02:17:38;;;;;;;11.95;5.50;;;;;;;;;;4993268;28;20069;-71
2021/04/10 02:20:10;;;;;;;12.90;6.22;;;;;;;;;;4993001;28;20101;-70
2021/04/10 02:22:36;;;;;;;12.05;6.05;;;;;;;;;;4992691;28;20042;-70
2021/04/10 02:25:03;;;;;;;11.77;5.72;;;;;;;;;;4992647;28;20031;-71
2021/04/10 02:27:29;;;;;;;10.88;5.22;;;;;;;;;;4992754;28;20036;-70
2021/04/10 02:29:55;;;;;;;7.53;4.40;;;;;;;;;;4992597;28;20027;-70
2021/04/10 02:32:21;;;;;;;11.75;5.20;;;;;;;;;;4992733;28;20034;-70
2021/04/10 02:34:50;;;;;;;10.48;5.10;;;;;;;;;;4992327;28;20098;-70
2021/04/10 02:37:16;;;;;;;11.13;5.20;;;;;;;;;;4992700;28;20097;-70
2021/04/10 02:39:44;;;;;;;8.27;4.75;;;;;;;;;;4992539;28;20022;-69
2021/04/10 02:42:11;;;;;;;10.18;4.45;;;;;;;;;;4974917;28;20037;-69
2021/04/10 02:44:40;;;;;;;9.65;4.72;;;;;;;;;;4992515;28;20030;-68
2021/04/10 02:47:08;;;;;;;11.25;4.55;;;;;;;;;;4992417;28;20101;-69
2021/04/10 02:49:37;;;;;;;8.93;4.13;;;;;;;;;;4992290;28;20031;-71
2021/04/10 02:52:04;;;;;;;7.68;3.67;;;;;;;;;;4992001;28;20457;-69
2021/04/10 02:54:32;;;;;;;11.07;4.50;;;;;;;;;;4992486;28;20026;-71
2021/04/10 02:57:02;;;;;;;11.70;5.43;;;;;;;;;;4992417;28;20383;-70
2021/04/10 02:59:29;;;;;;;15.35;5.50;;;;;;;;;;4991838;28;20030;-70
2021/04/10 03:01:56;;;;;;;10.52;5.38;;;;;;;;;;4992324;28;20030;-70
2021/04/10 03:04:22;;;;;;;12.85;5.80;;;;;;;;;;4991935;28;20030;-68
2021/04/10 03:06:48;;;;;;;18.67;6.30;;;;;;;;;;4992095;28;20022;-70
2021/04/10 03:09:14;;;;;;;13.38;6.60;;;;;;;;;;4992038;28;20101;-70
2021/04/10 03:11:40;;;;;;;13.07;6.45;;;;;;;;;;4991814;28;20471;-68
2021/04/10 03:14:07;;;;;;;11.30;5.65;;;;;;;;;;4992127;28;20019;-71
2021/04/10 03:16:33;;;;;;;16.02;7.00;;;;;;;;;;4991759;28;20026;-70
2021/04/10 03:18:59;;;;;;;20.75;8.73;;;;;;;;;;4991065;28;20058;-71
2021/04/10 03:21:26;;;;;;;14.05;6.88;;;;;;;;;;4986192;28;20027;-71
2021/04/10 03:23:52;;;;;;;14.80;6.90;;;;;;;;;;4981451;28;20590;-71
2021/04/10 03:26:19;;;;;;;14.52;7.00;;;;;;;;;;4984917;28;20088;-70
2021/04/10 03:28:46;;;;;;;11.40;5.68;;;;;;;;;;4991329;28;20054;-70
2021/04/10 03:31:12;;;;;;;10.77;6.05;;;;;;;;;;4991698;28;20092;-70
2021/04/10 03:33:38;;;;;;;12.93;5.95;;;;;;;;;;4991802;28;20034;-70
2021/04/10 03:36:05;;;;;;;12.07;5.70;;;;;;;;;;4991525;28;20050;-70
2021/04/10 03:38:32;;;;;;;10.85;5.57;;;;;;;;;;4991801;28;20026;-70
2021/04/10 03:40:59;;;;;;;10.90;5.28;;;;;;;;;;4991380;28;20102;-70
2021/04/10 03:43:25;;;;;;;13.75;6.30;;;;;;;;;;4991605;28;20566;-70
2021/04/10 03:45:51;;;;;;;13.13;5.80;;;;;;;;;;4991433;28;20030;-70
2021/04/10 03:48:18;;;;;;;11.75;6.07;;;;;;;;;;4991715;28;20053;-70
2021/04/10 03:50:44;;;;;;;12.02;5.68;;;;;;;;;;4991032;28;20115;-71
2021/04/10 03:53:10;;;;;;;10.02;5.47;;;;;;;;;;4990981;28;20214;-70
2021/04/10 03:55:36;;;;;;;9.40;5.10;;;;;;;;;;4991612;28;20026;-69
2021/04/10 03:58:03;;;;;;;11.93;5.22;;;;;;;;;;4991446;28;20103;-68
2021/04/10 04:00:30;;;;;;;13.77;5.65;;;;;;;;;;4991156;28;20054;-67
2021/04/10 04:02:56;;;;;;;11.38;5.82;;;;;;;;;;4991359;28;20165;-66
2021/04/10 04:05:23;;;;;;;17.13;6.30;;;;;;;;;;4991170;28;20108;-69
2021/04/10 04:07:50;;;;;;;10.75;5.40;;;;;;;;;;4991633;28;20410;-69
2021/04/10 04:10:16;;;;;;;10.48;5.38;;;;;;;;;;4991260;28;20037;-68
2021/04/10 04:12:43;;;;;;;11.90;6.10;;;;;;;;;;4991031;28;20046;-68
2021/04/10 04:15:09;;;;;;;11.30;5.60;;;;;;;;;;4990763;28;20046;-70
2021/04/10 04:17:35;;;;;;;13.32;5.97;;;;;;;;;;4991502;28;20032;-71
2021/04/10 04:20:02;;;;;;;14.10;6.53;;;;;;;;;;4990978;28;20492;-69
2021/04/10 04:22:28;;;;;;;15.13;6.55;;;;;;;;;;4991465;28;20157;-67
2021/04/10 04:24:54;;;;;;;14.00;6.30;;;;;;;;;;4991290;28;20105;-67
2021/04/10 04:27:20;;;;;;;13.00;5.65;;;;;;;;;;4990966;28;20085;-72
2021/04/10 04:29:46;;;;;;;14.85;6.47;;;;;;;;;;4990481;28;20022;-66
